createdAt,value
2018-10-02T00:00:24.041Z,53.22
2018-10-02T00:02:52.751Z,53.03
2018-10-02T00:05:21.369Z,52.93
2018-10-02T00:07:49.988Z,53.21
2018-10-02T00:10:18.667Z,52.94
2018-10-02T00:12:52.643Z,53.29
2018-10-02T00:15:21.245Z,52.94
2018-10-02T00:17:49.982Z,53.24
2018-10-02T00:20:18.535Z,52.63
2018-10-02T00:22:47.132Z,53.17
2018-10-02T00:25:15.709Z,53.14
2018-10-02T00:27:44.396Z,52.75
2018-10-02T00:30:12.974Z,53.15
2018-10-02T00:32:41.490Z,53.23
2018-10-02T00:35:10.093Z,53.35
2018-10-02T00:37:38.666Z,53.61
2018-10-02T00:40:07.209Z,53.45
2018-10-02T00:42:35.840Z,53.32
2018-10-02T00:45:04.370Z,53.46
2018-10-02T00:47:32.898Z,53.79
2018-10-02T00:50:01.475Z,53.70
2018-10-02T00:52:30.147Z,53.57
2018-10-02T00:54:58.730Z,53.63
2018-10-02T00:57:27.363Z,53.79
2018-10-02T00:59:55.931Z,53.83
2018-10-02T01:02:24.430Z,53.79
2018-10-02T01:04:53.124Z,53.83
2018-10-02T01:07:21.703Z,53.50
2018-10-02T01:09:50.240Z,53.86
2018-10-02T01:12:19.062Z,53.91
2018-10-02T01:14:47.720Z,53.80
2018-10-02T01:17:16.302Z,53.62
2018-10-02T01:19:44.997Z,53.79
2018-10-02T01:22:13.549Z,53.68
2018-10-02T01:24:42.159Z,53.55
2018-10-02T01:27:10.767Z,54.01
2018-10-02T01:29:39.342Z,53.98
2018-10-02T01:32:07.949Z,54.04
2018-10-02T01:34:36.514Z,54.05
2018-10-02T01:37:05.197Z,53.93
2018-10-02T01:39:33.780Z,54.12
2018-10-02T01:42:02.328Z,53.85
2018-10-02T01:44:30.931Z,54.38
2018-10-02T01:46:59.596Z,54.47
2018-10-02T01:49:28.283Z,54.48
2018-10-02T01:51:57.008Z,54.25
2018-10-02T01:54:25.643Z,54.40
2018-10-02T01:56:54.411Z,54.61
2018-10-02T01:59:23.238Z,54.90
2018-10-02T02:01:52.001Z,54.57
2018-10-02T02:04:20.806Z,55.07
2018-10-02T02:06:49.552Z,54.93
2018-10-02T02:09:18.435Z,55.02
2018-10-02T02:11:47.260Z,55.08
2018-10-02T02:14:16.080Z,55.34
2018-10-02T02:16:44.778Z,55.39
2018-10-02T02:19:13.464Z,55.25
2018-10-02T02:21:42.267Z,55.10
2018-10-02T02:24:11.061Z,55.11
2018-10-02T02:26:39.767Z,55.31
2018-10-02T02:29:08.630Z,55.64
2018-10-02T02:31:37.380Z,55.07
2018-10-02T02:34:06.172Z,55.48
2018-10-02T02:36:35.036Z,55.37
2018-10-02T02:39:07.640Z,55.54
2018-10-02T02:41:36.337Z,55.57
2018-10-02T02:44:05.286Z,55.69
2018-10-02T02:46:34.199Z,55.18
2018-10-02T02:49:08.046Z,55.47
2018-10-02T02:51:36.833Z,55.18
2018-10-02T02:54:05.640Z,55.48
2018-10-02T02:56:34.404Z,55.42
2018-10-02T02:59:03.053Z,55.50
2018-10-02T03:01:31.785Z,56.01
2018-10-02T03:04:00.859Z,55.65
2018-10-02T03:06:29.451Z,55.58
2018-10-02T03:08:58.123Z,55.89
2018-10-02T03:11:26.943Z,55.82
2018-10-02T03:13:55.663Z,55.54
2018-10-02T03:16:24.347Z,55.79
2018-10-02T03:18:53.324Z,55.34
2018-10-02T03:21:22.231Z,55.28
2018-10-02T03:23:50.982Z,55.52
2018-10-02T03:26:19.861Z,55.65
2018-10-02T03:28:48.764Z,55.97
2018-10-02T03:31:17.513Z,55.80
2018-10-02T03:33:46.249Z,55.27
2018-10-02T03:36:14.899Z,55.96
2018-10-02T03:38:44.272Z,55.77
2018-10-02T03:41:13.152Z,55.43
2018-10-02T03:43:41.957Z,55.63
2018-10-02T03:46:10.724Z,55.83
2018-10-02T03:48:39.558Z,55.82
2018-10-02T03:51:08.212Z,56.10
2018-10-02T03:53:37.127Z,56.16
2018-10-02T03:56:05.899Z,55.67
2018-10-02T03:58:34.684Z,55.75
2018-10-02T04:01:03.384Z,55.64
2018-10-02T04:03:32.301Z,55.69
2018-10-02T04:06:01.083Z,55.89
2018-10-02T04:08:29.892Z,55.99
2018-10-02T04:10:58.613Z,56.11
2018-10-02T04:13:27.192Z,56.08
2018-10-02T04:15:55.692Z,56.15
2018-10-02T04:18:24.357Z,55.83
2018-10-02T04:20:53.077Z,55.72
2018-10-02T04:23:21.628Z,55.47
2018-10-02T04:25:50.176Z,55.97
2018-10-02T04:28:18.777Z,55.73
2018-10-02T04:30:47.364Z,55.84
2018-10-02T04:33:15.957Z,55.85
2018-10-02T04:35:44.486Z,55.50
2018-10-02T04:38:13.081Z,55.34
2018-10-02T04:40:41.675Z,55.28
2018-10-02T04:43:10.345Z,55.11
2018-10-02T04:45:38.984Z,55.18
2018-10-02T04:48:07.684Z,55.34
2018-10-02T04:50:36.257Z,55.14
2018-10-02T04:53:04.873Z,55.38
2018-10-02T04:55:33.628Z,55.10
2018-10-02T04:58:02.203Z,55.06
2018-10-02T05:00:30.888Z,55.42
2018-10-02T05:02:59.582Z,54.78
2018-10-02T05:05:28.171Z,54.85
2018-10-02T05:07:56.799Z,55.17
2018-10-02T05:10:25.352Z,55.40
2018-10-02T05:12:54.017Z,55.16
2018-10-02T05:15:22.742Z,54.78
2018-10-02T05:17:51.352Z,54.80
2018-10-02T05:20:19.943Z,55.06
2018-10-02T05:22:48.518Z,54.58
2018-10-02T05:25:17.419Z,54.75
2018-10-02T05:27:46.311Z,54.22
2018-10-02T05:30:15.596Z,54.14
2018-10-02T05:32:44.350Z,54.07
2018-10-02T05:35:13.514Z,53.78
2018-10-02T05:37:42.217Z,54.15
2018-10-02T05:40:11.042Z,53.85
2018-10-02T05:42:40.026Z,53.54
2018-10-02T05:45:09.840Z,53.36
2018-10-02T05:47:39.858Z,53.61
2018-10-02T05:50:08.735Z,53.20
2018-10-02T05:52:37.572Z,53.65
2018-10-02T05:55:06.414Z,53.04
2018-10-02T05:57:35.900Z,53.50
2018-10-02T06:00:04.853Z,53.44
2018-10-02T06:02:33.718Z,53.44
2018-10-02T06:05:02.598Z,53.27
2018-10-02T06:07:31.407Z,53.16
2018-10-02T06:10:00.334Z,53.14
2018-10-02T06:12:29.144Z,52.97
2018-10-02T06:14:57.962Z,52.96
2018-10-02T06:17:26.624Z,52.95
2018-10-02T06:19:55.488Z,53.09
2018-10-02T06:22:24.339Z,52.99
2018-10-02T06:24:52.981Z,52.97
2018-10-02T06:27:21.703Z,52.94
2018-10-02T06:29:50.385Z,53.50
2018-10-02T06:32:19.167Z,52.93
2018-10-02T06:34:47.719Z,53.34
2018-10-02T06:37:16.738Z,53.43
2018-10-02T06:39:45.626Z,53.73
2018-10-02T06:42:14.745Z,53.50
2018-10-02T06:44:43.402Z,53.44
2018-10-02T06:47:12.716Z,53.13
2018-10-02T06:49:41.425Z,52.96
2018-10-02T06:52:10.165Z,53.02
2018-10-02T06:54:38.543Z,53.49
2018-10-02T06:57:07.566Z,53.59
2018-10-02T06:59:37.467Z,53.78
2018-10-02T07:02:06.177Z,53.69
2018-10-02T07:04:34.661Z,54.12
2018-10-02T07:07:03.719Z,54.46
2018-10-02T07:09:42.008Z,54.37
2018-10-02T07:12:10.579Z,54.49
2018-10-02T07:14:41.101Z,54.33
2018-10-02T07:17:10.280Z,54.72
2018-10-02T07:19:41.766Z,54.33
2018-10-02T07:22:10.612Z,54.69
2018-10-02T07:24:39.553Z,54.38
2018-10-02T07:27:08.322Z,54.13
2018-10-02T07:29:36.933Z,54.59
2018-10-02T07:32:05.577Z,55.10
2018-10-02T07:34:34.513Z,54.73
2018-10-02T07:37:03.227Z,55.03
2018-10-02T07:39:31.784Z,54.90
2018-10-02T07:42:00.668Z,54.56
2018-10-02T07:44:29.616Z,54.62
2018-10-02T07:46:58.334Z,55.16
2018-10-02T07:49:26.936Z,54.90
2018-10-02T07:51:55.878Z,54.81
2018-10-02T07:54:25.008Z,54.76
2018-10-02T07:56:54.003Z,54.91
2018-10-02T07:59:23.081Z,54.88
2018-10-02T08:01:51.904Z,55.21
2018-10-02T08:04:20.579Z,55.64
2018-10-02T08:06:50.203Z,55.60
2018-10-02T08:09:19.034Z,55.56
2018-10-02T08:11:47.933Z,55.98
2018-10-02T08:14:16.664Z,56.87
2018-10-02T08:16:45.412Z,57.26
2018-10-02T08:19:14.141Z,57.42
2018-10-02T08:21:43.547Z,57.70
2018-10-02T08:24:12.598Z,57.96
2018-10-02T08:26:41.368Z,58.10
2018-10-02T08:29:09.938Z,58.48
2018-10-02T08:31:38.647Z,58.60
2018-10-02T08:34:07.160Z,58.74
2018-10-02T08:36:35.752Z,58.96
2018-10-02T08:39:05.669Z,59.06
2018-10-02T08:41:34.170Z,59.15
2018-10-02T08:44:02.739Z,59.60
2018-10-02T08:46:31.292Z,59.92
2018-10-02T08:49:00.087Z,60.06
2018-10-02T08:51:28.881Z,60.06
2018-10-02T08:53:57.696Z,60.26
2018-10-02T08:56:26.269Z,60.23
2018-10-02T08:58:54.866Z,60.51
2018-10-02T09:01:23.465Z,60.21
2018-10-02T09:03:52.011Z,60.78
2018-10-02T09:06:21.813Z,60.05
2018-10-02T09:08:50.352Z,60.26
2018-10-02T09:11:18.992Z,59.88
2018-10-02T09:13:47.611Z,59.91
2018-10-02T09:16:16.189Z,59.74
2018-10-02T09:18:44.774Z,59.74
2018-10-02T09:21:13.327Z,59.61
2018-10-02T09:23:41.976Z,60.10
2018-10-02T09:26:10.521Z,59.50
2018-10-02T09:28:39.278Z,59.72
2018-10-02T09:31:12.933Z,59.14
2018-10-02T09:33:46.778Z,59.95
2018-10-02T09:36:20.437Z,59.75
2018-10-02T09:41:00.538Z,60.00
2018-10-02T09:43:37.334Z,59.95
2018-10-02T09:46:05.887Z,59.56
2018-10-02T09:48:34.464Z,59.13
2018-10-02T09:51:03.146Z,58.90
2018-10-02T09:53:31.663Z,58.60
2018-10-02T09:56:00.239Z,58.27
2018-10-02T09:58:28.773Z,58.74
2018-10-02T10:01:02.626Z,58.59
2018-10-02T10:03:31.092Z,58.19
2018-10-02T10:05:59.600Z,58.34
2018-10-02T10:08:28.105Z,58.57
2018-10-02T10:10:56.639Z,58.70
2018-10-02T10:13:25.077Z,58.42
2018-10-02T10:15:53.551Z,58.99
2018-10-02T10:18:22.055Z,58.95
2018-10-02T10:20:50.551Z,59.16
2018-10-02T10:23:18.976Z,59.11
2018-10-02T10:25:47.489Z,58.54
2018-10-02T10:28:15.972Z,58.50
2018-10-02T10:30:44.414Z,58.53
2018-10-02T10:33:13.021Z,58.15
2018-10-02T10:35:41.532Z,58.16
2018-10-02T10:38:11.268Z,58.42
2018-10-02T10:40:40.162Z,58.72
2018-10-02T10:43:08.730Z,59.14
2018-10-02T10:45:37.440Z,59.16
2018-10-02T10:48:05.953Z,59.02
2018-10-02T10:50:34.475Z,59.20
2018-10-02T10:53:03.013Z,59.62
2018-10-02T10:55:33.542Z,59.21
2018-10-02T10:58:02.060Z,60.59
2018-10-02T11:00:30.911Z,59.63
2018-10-02T11:02:59.431Z,59.58
2018-10-02T11:05:27.899Z,59.89
2018-10-02T11:07:56.331Z,60.02
2018-10-02T11:10:24.824Z,59.89
2018-10-02T11:12:53.404Z,60.09
2018-10-02T11:15:22.687Z,60.47
2018-10-02T11:17:51.502Z,60.59
2018-10-02T11:20:23.288Z,60.35
2018-10-02T11:22:51.829Z,60.59
2018-10-02T11:25:20.310Z,60.79
2018-10-02T11:27:48.804Z,61.42
2018-10-02T11:30:17.363Z,60.70
2018-10-02T11:32:45.870Z,60.54
2018-10-02T11:35:14.564Z,60.89
2018-10-02T11:37:43.359Z,61.09
2018-10-02T11:40:11.923Z,61.23
2018-10-02T11:42:47.120Z,61.50
2018-10-02T11:45:15.663Z,60.82
2018-10-02T11:47:44.355Z,61.37
2018-10-02T11:50:13.003Z,61.75
2018-10-02T11:52:41.756Z,61.05
2018-10-02T11:55:10.010Z,61.65
2018-10-02T11:57:40.536Z,61.70
2018-10-02T12:00:09.270Z,61.41
2018-10-02T12:02:38.231Z,61.76
2018-10-02T12:05:08.268Z,62.09
2018-10-02T12:07:36.894Z,62.15
2018-10-02T12:10:05.835Z,62.14
2018-10-02T12:12:35.879Z,61.88
2018-10-02T12:15:05.461Z,61.34
2018-10-02T12:17:34.368Z,61.75
2018-10-02T12:20:03.193Z,62.08
2018-10-02T12:22:31.889Z,62.03
2018-10-02T12:28:03.679Z,62.74
2018-10-02T12:30:32.251Z,62.21
2018-10-02T12:33:00.953Z,62.59
2018-10-02T12:35:31.190Z,62.47
2018-10-02T12:38:02.996Z,62.71
2018-10-02T12:40:32.691Z,62.69
2018-10-02T12:43:01.803Z,62.83
2018-10-02T12:45:31.516Z,62.82
2018-10-02T12:48:00.461Z,62.87
2018-10-02T12:50:29.004Z,62.62
2018-10-02T12:53:00.147Z,62.12
2018-10-02T12:55:28.769Z,62.76
2018-10-02T12:57:58.474Z,62.32
2018-10-02T13:00:27.102Z,63.12
2018-10-02T13:02:56.639Z,62.56
2018-10-02T13:05:25.278Z,62.86
2018-10-02T13:07:53.824Z,62.85
2018-10-02T13:10:22.405Z,62.81
2018-10-02T13:12:51.010Z,62.94
2018-10-02T13:15:19.742Z,63.82
2018-10-02T13:17:48.438Z,63.00
2018-10-02T13:20:17.058Z,62.96
2018-10-02T13:22:45.899Z,63.08
2018-10-02T13:25:14.560Z,62.84
2018-10-02T13:27:43.243Z,63.21
2018-10-02T13:30:11.706Z,63.27
2018-10-02T13:32:40.436Z,63.08
2018-10-02T13:35:09.012Z,62.88
2018-10-02T13:37:37.585Z,62.96
2018-10-02T13:42:39.990Z,63.12
2018-10-02T13:45:09.551Z,63.07
2018-10-02T13:47:38.323Z,63.57
2018-10-02T13:50:07.022Z,63.79
2018-10-02T13:52:35.720Z,63.38
2018-10-02T13:55:04.469Z,63.75
2018-10-02T14:00:17.675Z,63.57
2018-10-02T14:02:46.407Z,64.12
2018-10-02T14:05:22.249Z,64.04
2018-10-02T14:07:51.054Z,64.03
2018-10-02T14:10:20.135Z,64.16
2018-10-02T14:12:49.620Z,63.91
2018-10-02T14:15:18.364Z,63.88
2018-10-02T14:17:47.099Z,63.94
2018-10-02T14:20:16.004Z,64.06
2018-10-02T14:22:44.998Z,63.53
2018-10-02T14:25:16.167Z,64.22
2018-10-02T14:30:41.345Z,64.00
2018-10-02T14:33:11.872Z,63.98
2018-10-02T14:35:40.702Z,64.56
2018-10-02T14:38:09.336Z,64.26
2018-10-02T14:40:38.299Z,64.46
2018-10-02T14:43:07.145Z,64.50
2018-10-02T14:45:35.836Z,63.94
2018-10-02T14:48:04.501Z,64.42
2018-10-02T14:50:33.519Z,63.95
2018-10-02T14:53:02.891Z,63.88
2018-10-02T14:55:32.294Z,64.29
2018-10-02T14:58:00.939Z,64.14
2018-10-02T15:00:30.047Z,63.56
2018-10-02T15:02:59.789Z,63.89
2018-10-02T15:05:29.191Z,63.75
2018-10-02T15:07:58.016Z,63.87
2018-10-02T15:10:29.733Z,64.30
2018-10-02T15:12:59.340Z,63.94
2018-10-02T15:15:28.010Z,64.08
2018-10-02T15:17:56.598Z,63.51
2018-10-02T15:20:27.734Z,63.73
2018-10-02T15:22:56.315Z,63.94
2018-10-02T15:25:25.019Z,63.51
2018-10-02T15:27:53.705Z,63.75
2018-10-02T15:30:22.852Z,63.43
2018-10-02T15:32:51.656Z,63.70
2018-10-02T15:35:20.244Z,63.55
2018-10-02T15:37:49.052Z,63.86
2018-10-02T15:40:17.558Z,63.80
2018-10-02T15:42:46.084Z,63.65
2018-10-02T15:45:14.673Z,64.02
2018-10-02T15:47:43.195Z,63.37
2018-10-02T15:50:11.735Z,63.50
2018-10-02T15:52:41.459Z,62.88
2018-10-02T15:55:10.158Z,63.90
2018-10-02T15:57:40.177Z,63.64
2018-10-02T16:00:09.105Z,63.39
2018-10-02T16:02:38.502Z,63.94
2018-10-02T16:05:07.298Z,63.09
2018-10-02T16:07:36.393Z,63.50
2018-10-02T16:10:05.345Z,63.20
2018-10-02T16:12:33.931Z,62.88
2018-10-02T16:15:02.962Z,62.90
2018-10-02T16:17:31.939Z,63.13
2018-10-02T16:20:01.514Z,63.63
2018-10-02T16:22:30.884Z,63.79
2018-10-02T16:24:59.551Z,63.45
2018-10-02T16:27:28.079Z,63.03
2018-10-02T16:29:57.448Z,63.24
2018-10-02T16:32:33.118Z,62.99
2018-10-02T16:35:03.612Z,62.92
2018-10-02T16:37:34.592Z,63.29
2018-10-02T16:40:04.013Z,63.21
2018-10-02T16:42:33.121Z,62.83
2018-10-02T16:45:01.672Z,63.13
2018-10-02T16:47:31.312Z,63.41
2018-10-02T16:50:01.018Z,63.32
2018-10-02T16:52:31.448Z,63.54
2018-10-02T16:55:05.650Z,63.40
2018-10-02T16:57:36.659Z,63.60
2018-10-02T17:00:07.252Z,63.39
2018-10-02T17:02:36.884Z,63.80
2018-10-02T17:05:06.577Z,63.12
2018-10-02T17:07:36.309Z,63.81
2018-10-02T17:10:07.478Z,63.41
2018-10-02T17:12:38.355Z,63.29
2018-10-02T17:15:08.406Z,63.29
2018-10-02T17:17:39.942Z,63.56
2018-10-02T17:20:08.666Z,63.79
2018-10-02T17:22:37.796Z,63.62
2018-10-02T17:25:06.502Z,64.15
2018-10-02T17:27:35.150Z,63.41
2018-10-02T17:30:03.817Z,63.72
2018-10-02T17:32:32.687Z,64.04
2018-10-02T17:35:01.681Z,64.40
2018-10-02T17:37:30.371Z,64.10
2018-10-02T17:39:59.986Z,63.66
2018-10-02T17:42:30.439Z,64.26
2018-10-02T17:44:59.342Z,64.17
2018-10-02T17:47:27.993Z,63.70
2018-10-02T17:49:56.687Z,64.29
2018-10-02T17:52:25.475Z,64.44
2018-10-02T17:54:54.418Z,64.81
2018-10-02T17:57:22.984Z,64.23
2018-10-02T17:59:51.860Z,64.00
2018-10-02T18:02:58.535Z,64.87
2018-10-02T18:05:27.215Z,64.85
2018-10-02T18:07:55.982Z,64.67
2018-10-02T18:10:24.721Z,64.83
2018-10-02T18:12:53.308Z,63.83
2018-10-02T18:15:22.125Z,64.68
2018-10-02T18:17:50.721Z,63.75
2018-10-02T18:20:19.403Z,63.58
2018-10-02T18:22:48.464Z,63.74
2018-10-02T18:25:17.089Z,63.53
2018-10-02T18:27:45.832Z,63.21
2018-10-02T18:30:14.391Z,63.77
2018-10-02T18:32:42.943Z,64.08
2018-10-02T18:35:11.523Z,64.04
2018-10-02T18:37:40.144Z,63.91
2018-10-02T18:40:08.789Z,63.46
2018-10-02T18:42:37.697Z,64.30
2018-10-02T18:45:06.370Z,63.77
2018-10-02T18:47:35.051Z,63.90
2018-10-02T18:50:03.678Z,64.18
2018-10-02T18:52:32.220Z,64.15
2018-10-02T18:55:00.763Z,63.93
2018-10-02T18:57:29.353Z,63.98
2018-10-02T18:59:58.026Z,63.51
2018-10-02T19:02:26.615Z,63.69
2018-10-02T19:04:55.541Z,62.99
2018-10-02T19:07:24.374Z,63.27
2018-10-02T19:09:52.997Z,62.70
2018-10-02T19:12:22.201Z,62.95
2018-10-02T19:14:50.900Z,62.78
2018-10-02T19:17:19.510Z,62.44
2018-10-02T19:19:53.096Z,61.90
2018-10-02T19:22:21.878Z,62.21
2018-10-02T19:24:50.674Z,62.93
2018-10-02T19:27:19.218Z,62.64
2018-10-02T19:29:51.855Z,63.10
2018-10-02T19:32:20.416Z,62.76
2018-10-02T19:34:49.094Z,62.57
2018-10-02T19:37:22.693Z,62.97
2018-10-02T19:39:51.249Z,62.68
2018-10-02T19:42:19.753Z,63.02
2018-10-02T19:44:48.328Z,62.79
2018-10-02T19:47:16.944Z,62.32
2018-10-02T19:49:45.463Z,62.32
2018-10-02T19:52:15.151Z,62.41
2018-10-02T19:54:44.080Z,62.92
2018-10-02T19:57:15.441Z,62.70
2018-10-02T19:59:44.040Z,62.45
2018-10-02T20:02:12.746Z,61.81
2018-10-02T20:04:41.646Z,61.80
2018-10-02T20:07:11.499Z,61.76
2018-10-02T20:09:41.484Z,61.95
2018-10-02T20:12:11.686Z,61.83
2018-10-02T20:14:41.802Z,61.98
2018-10-02T20:17:11.489Z,61.74
2018-10-02T20:19:40.189Z,61.80
2018-10-02T20:22:09.750Z,61.22
2018-10-02T20:24:38.509Z,61.68
2018-10-02T20:27:07.211Z,61.31
2018-10-02T20:29:35.871Z,61.24
2018-10-02T20:32:04.697Z,60.97
2018-10-02T20:34:33.349Z,61.74
2018-10-02T20:37:02.059Z,60.82
2018-10-02T20:39:30.784Z,61.14
2018-10-02T20:41:59.533Z,61.09
2018-10-02T20:44:28.244Z,60.60
2018-10-02T20:46:57.100Z,60.63
2018-10-02T20:49:25.932Z,61.13
2018-10-02T20:51:54.767Z,60.91
2018-10-02T20:54:23.505Z,60.93
2018-10-02T20:56:52.211Z,61.55
2018-10-02T20:59:21.247Z,61.00
2018-10-02T21:01:53.285Z,60.86
2018-10-02T21:04:22.113Z,60.80
2018-10-02T21:06:50.788Z,61.14
2018-10-02T21:09:19.606Z,60.56
2018-10-02T21:11:48.276Z,60.67
2018-10-02T21:14:17.696Z,60.95
2018-10-02T21:16:46.494Z,60.74
2018-10-02T21:19:15.229Z,61.06
2018-10-02T21:21:44.148Z,61.00
2018-10-02T21:24:12.800Z,60.96
2018-10-02T21:26:41.388Z,61.32
2018-10-02T21:29:10.057Z,60.99
2018-10-02T21:31:39.984Z,61.02
2018-10-02T21:34:08.495Z,60.91
2018-10-02T21:36:36.977Z,61.09
2018-10-02T21:39:09.780Z,60.50
2018-10-02T21:41:38.285Z,60.95
2018-10-02T21:44:06.844Z,61.08
2018-10-02T21:46:35.261Z,60.63
2018-10-02T21:49:03.772Z,61.16
2018-10-02T21:51:32.173Z,61.18
2018-10-02T21:54:00.655Z,61.25
2018-10-02T21:56:29.142Z,61.19
2018-10-02T21:58:57.603Z,61.43
2018-10-02T22:01:32.416Z,61.27
2018-10-02T22:04:00.943Z,61.20
2018-10-02T22:06:29.369Z,61.37
2018-10-02T22:08:57.874Z,61.13
2018-10-02T22:11:26.388Z,61.45
2018-10-02T22:13:54.984Z,61.89
2018-10-02T22:16:23.412Z,61.63
2018-10-02T22:18:51.882Z,61.60
2018-10-02T22:21:20.377Z,61.47
2018-10-02T22:23:48.932Z,61.52
2018-10-02T22:26:17.497Z,61.38
2018-10-02T22:28:46.324Z,62.18
2018-10-02T22:31:14.789Z,61.73
2018-10-02T22:33:43.388Z,61.50
2018-10-02T22:36:11.852Z,62.42
2018-10-02T22:38:40.351Z,62.29
2018-10-02T22:41:08.820Z,62.25
2018-10-02T22:43:37.300Z,62.91
2018-10-02T22:46:06.343Z,62.19
2018-10-02T22:48:34.818Z,63.16
2018-10-02T22:51:03.261Z,62.80
2018-10-02T22:53:31.736Z,62.97
2018-10-02T22:56:00.320Z,62.96
2018-10-02T22:58:28.878Z,63.37
2018-10-02T23:00:57.356Z,63.54
2018-10-02T23:03:25.873Z,63.71
2018-10-02T23:05:54.874Z,64.14
2018-10-02T23:08:23.436Z,64.29
2018-10-02T23:10:51.965Z,64.22
2018-10-02T23:13:20.446Z,63.94
2018-10-02T23:15:49.037Z,63.78
2018-10-02T23:18:17.589Z,64.03
2018-10-02T23:20:46.165Z,64.05
2018-10-02T23:23:14.771Z,63.27
2018-10-02T23:25:43.355Z,64.29
2018-10-02T23:28:11.972Z,64.01
2018-10-02T23:30:40.779Z,64.01
2018-10-02T23:33:09.395Z,63.99
2018-10-02T23:35:37.918Z,64.04
2018-10-02T23:38:06.632Z,64.67
2018-10-02T23:40:35.423Z,63.88
2018-10-02T23:43:04.059Z,63.78
2018-10-02T23:45:32.804Z,64.14
2018-10-02T23:48:01.497Z,63.34
2018-10-02T23:50:30.019Z,63.41
2018-10-02T23:52:58.710Z,63.59
2018-10-02T23:55:27.394Z,63.24
2018-10-02T23:57:55.928Z,63.59
